Time;durP1;ratioP1;P1;durP2;ratioP2;P2;SDS_P1;SDS_P2;PMS_P1;PMS_P2;Temp;Humidity;BMP_temperature;BMP_pressure;BME280_temperature;BME280_humidity;BME280_pressure;Samples;Min_cycle;Max_cycle;Signal;HPM_P1;HPM_P2
2022/04/05 00:00:55;;;;;;;6.73;2.87;;;8.70;99.90;;;;;;5001609;28;20641;-82
2022/04/05 00:03:23;;;;;;;4.87;2.90;;;8.60;99.90;;;;;;4995527;28;20222;-82
2022/04/05 00:05:50;;;;;;;6.47;2.83;;;8.50;99.90;;;;;;5003122;28;20207;-81
2022/04/05 00:08:17;;;;;;;4.60;2.57;;;8.50;99.90;;;;;;5002928;28;20306;-83
2022/04/05 00:10:44;;;;;;;4.83;1.87;;;8.50;99.90;;;;;;4998571;28;20271;-83
2022/04/05 00:13:11;;;;;;;4.53;2.30;;;8.50;99.90;;;;;;5002008;28;20211;-83
2022/04/05 00:15:38;;;;;;;5.90;2.63;;;8.50;99.90;;;;;;5004574;28;20332;-83
2022/04/05 00:18:04;;;;;;;4.17;2.20;;;8.40;99.90;;;;;;5000990;28;20237;-83
2022/04/05 00:20:31;;;;;;;9.90;2.17;;;8.50;99.90;;;;;;4998295;28;20211;-83
2022/04/05 00:22:58;;;;;;;6.97;2.80;;;8.40;99.90;;;;;;5002867;28;20320;-81
2022/04/05 00:25:25;;;;;;;6.17;2.50;;;8.40;99.90;;;;;;5001994;28;20232;-82
2022/04/05 00:27:52;;;;;;;3.73;1.93;;;8.40;99.90;;;;;;5000840;28;20324;-82
2022/04/05 00:30:19;;;;;;;5.80;1.97;;;8.40;99.90;;;;;;5009541;28;20210;-85
2022/04/05 00:32:47;;;;;;;3.57;1.80;;;8.40;99.90;;;;;;4994181;28;20254;-82
2022/04/05 00:35:14;;;;;;;4.87;2.07;;;8.40;99.90;;;;;;5011763;28;20206;-82
2022/04/05 00:37:41;;;;;;;3.03;2.23;;;8.40;99.90;;;;;;5002006;28;20333;-82
2022/04/05 00:40:09;;;;;;;5.83;2.17;;;8.40;99.90;;;;;;5015307;28;20307;-82
2022/04/05 00:42:39;;;;;;;5.60;2.10;;;8.40;99.90;;;;;;5002948;28;20677;-82
2022/04/05 00:45:07;;;;;;;3.77;2.33;;;8.40;99.90;;;;;;4995482;28;20231;-83
2022/04/05 00:47:35;;;;;;;4.63;1.83;;;8.40;99.90;;;;;;4992506;28;20357;-83
2022/04/05 00:50:05;;;;;;;5.23;2.10;;;8.40;99.90;;;;;;4997325;28;20221;-81
2022/04/05 00:52:31;;;;;;;5.13;2.13;;;8.40;99.90;;;;;;4991002;28;20678;-83
2022/04/05 00:54:59;;;;;;;2.60;2.23;;;8.40;99.90;;;;;;4998825;28;20303;-82
2022/04/05 00:57:29;;;;;;;4.93;2.07;;;8.40;99.90;;;;;;5001872;28;20376;-82
2022/04/05 01:00:00;;;;;;;8.27;2.50;;;8.30;99.90;;;;;;4997827;28;20270;-82
2022/04/05 01:02:29;;;;;;;5.33;2.57;;;8.30;99.90;;;;;;5003773;28;20268;-82
2022/04/05 01:04:56;;;;;;;2.90;2.10;;;8.30;99.90;;;;;;4999202;28;20210;-80
2022/04/05 01:07:24;;;;;;;4.20;2.27;;;8.30;99.90;;;;;;5003755;28;20332;-82
2022/04/05 01:09:54;;;;;;;5.37;2.33;;;8.30;99.90;;;;;;4996006;28;20612;-82
2022/04/05 01:12:22;;;;;;;3.23;2.60;;;8.30;99.90;;;;;;5001617;28;20212;-81
2022/04/05 01:14:52;;;;;;;5.60;3.07;;;8.40;99.90;;;;;;4996787;28;20266;-82
2022/04/05 01:17:20;;;;;;;6.20;2.90;;;8.40;99.90;;;;;;5004765;28;20773;-82
2022/04/05 01:19:47;;;;;;;6.97;3.30;;;8.40;99.90;;;;;;4989402;28;20383;-82
2022/04/05 01:22:14;;;;;;;5.00;3.00;;;8.40;99.90;;;;;;4998222;28;20271;-82
2022/04/05 01:24:41;;;;;;;4.10;2.50;;;8.40;99.90;;;;;;4993693;28;21007;-82
2022/04/05 01:27:08;;;;;;;10.23;3.13;;;8.40;99.90;;;;;;4998681;28;20230;-81
2022/04/05 01:29:35;;;;;;;6.03;2.77;;;8.40;99.90;;;;;;5005568;28;20600;-82
2022/04/05 01:32:07;;;;;;;5.77;2.43;;;8.40;99.90;;;;;;5002723;28;20651;-82
2022/04/05 01:34:35;;;;;;;5.80;2.57;;;8.40;99.90;;;;;;4998787;28;20742;-82
2022/04/05 01:37:09;;;;;;;5.20;2.87;;;8.30;99.90;;;;;;4994580;28;20310;-82
2022/04/05 01:39:38;;;;;;;6.63;2.53;;;8.30;99.90;;;;;;4995459;28;20331;-81
2022/04/05 01:42:10;;;;;;;4.83;2.80;;;8.30;99.90;;;;;;4999314;28;20217;-82
2022/04/05 01:44:38;;;;;;;6.10;2.77;;;8.30;99.90;;;;;;4997485;28;20271;-82
2022/04/05 01:47:16;;;;;;;4.00;2.50;;;8.30;99.90;;;;;;4996875;28;20593;-82
2022/04/05 01:49:44;;;;;;;5.70;2.47;;;8.30;99.90;;;;;;5003181;28;20248;-82
2022/04/05 01:52:12;;;;;;;4.50;2.90;;;8.30;99.90;;;;;;4999781;28;20230;-82
2022/04/05 01:54:39;;;;;;;4.97;2.70;;;8.20;99.90;;;;;;4993913;28;20220;-82
2022/04/05 01:57:07;;;;;;;8.17;2.57;;;8.20;99.90;;;;;;4999128;28;20656;-82
2022/04/05 01:59:36;;;;;;;7.73;2.97;;;8.20;99.90;;;;;;4996681;28;20269;-83
2022/04/05 02:02:11;;;;;;;5.53;2.80;;;8.20;99.90;;;;;;5002116;28;20225;-83
2022/04/05 02:04:39;;;;;;;5.53;2.47;;;8.20;99.90;;;;;;5006306;28;20241;-83
2022/04/05 02:07:25;;;;;;;8.60;3.13;;;8.20;99.90;;;;;;5001790;28;20470;-81
2022/04/05 02:09:52;;;;;;;4.10;2.67;;;8.20;99.90;;;;;;5007334;28;20214;-83
2022/04/05 02:12:19;;;;;;;5.97;2.80;;;8.20;99.90;;;;;;5015014;28;20279;-82
2022/04/05 02:14:46;;;;;;;6.93;2.63;;;8.20;99.90;;;;;;5014047;28;20237;-82
2022/04/05 02:17:13;;;;;;;7.67;2.80;;;8.10;99.90;;;;;;5012161;28;20314;-83
2022/04/05 02:19:40;;;;;;;11.30;3.37;;;8.20;99.90;;;;;;5010245;28;20287;-83
2022/04/05 02:22:07;;;;;;;5.73;2.80;;;8.20;99.90;;;;;;5000655;28;20220;-83
2022/04/05 02:24:34;;;;;;;6.03;3.03;;;8.10;99.90;;;;;;5006433;28;20201;-83
2022/04/05 02:27:01;;;;;;;9.43;3.43;;;8.20;99.90;;;;;;4997847;28;20217;-83
2022/04/05 02:29:28;;;;;;;8.73;3.30;;;8.20;99.90;;;;;;5009387;28;20250;-83
2022/04/05 02:31:55;;;;;;;8.80;3.13;;;8.20;99.90;;;;;;5001806;28;20205;-83
2022/04/05 02:34:22;;;;;;;5.47;3.30;;;8.20;99.90;;;;;;5001343;28;20657;-82
2022/04/05 02:36:48;;;;;;;9.27;3.67;;;8.20;99.90;;;;;;4998697;28;20255;-84
2022/04/05 02:39:15;;;;;;;6.30;3.03;;;8.20;99.90;;;;;;4997482;28;20207;-83
2022/04/05 02:41:42;;;;;;;8.13;3.40;;;8.20;99.90;;;;;;5007791;28;20285;-82
2022/04/05 02:44:09;;;;;;;8.10;3.27;;;8.20;99.90;;;;;;5011897;28;20718;-83
2022/04/05 02:46:36;;;;;;;10.97;3.43;;;8.20;99.90;;;;;;5003237;28;20557;-83
2022/04/05 02:49:06;;;;;;;8.23;3.13;;;8.20;99.90;;;;;;4994573;28;20247;-82
2022/04/05 02:51:33;;;;;;;6.17;3.37;;;8.20;99.90;;;;;;5002301;28;20287;-83
2022/04/05 02:54:00;;;;;;;9.27;3.20;;;8.10;99.90;;;;;;5015900;28;20275;-83
2022/04/05 02:56:27;;;;;;;6.40;2.63;;;8.10;99.90;;;;;;5002474;28;20289;-83
2022/04/05 02:58:53;;;;;;;8.53;3.40;;;8.10;99.90;;;;;;4999760;28;20708;-81
2022/04/05 03:01:20;;;;;;;6.27;3.10;;;8.10;99.90;;;;;;5001100;28;20237;-82
2022/04/05 03:03:47;;;;;;;6.37;3.70;;;8.20;99.90;;;;;;4997326;28;20242;-82
2022/04/05 03:06:14;;;;;;;7.53;3.47;;;8.10;99.90;;;;;;4995046;28;20222;-83
2022/04/05 03:08:41;;;;;;;9.13;3.00;;;8.10;99.90;;;;;;5003878;28;20222;-83
2022/04/05 03:11:08;;;;;;;8.60;3.13;;;8.20;99.90;;;;;;4997766;28;20222;-82
2022/04/05 03:13:35;;;;;;;7.57;3.20;;;8.10;99.90;;;;;;4998993;28;20272;-82
2022/04/05 03:16:02;;;;;;;10.63;3.47;;;8.10;99.90;;;;;;4992049;28;20257;-82
2022/04/05 03:18:29;;;;;;;6.80;3.07;;;8.20;99.90;;;;;;4999546;28;20242;-81
2022/04/05 03:20:56;;;;;;;10.23;4.00;;;8.20;99.90;;;;;;5000906;28;20573;-81
2022/04/05 03:23:22;;;;;;;7.07;3.83;;;8.20;99.90;;;;;;5005569;28;20268;-82
2022/04/05 03:25:50;;;;;;;9.57;3.17;;;8.20;99.90;;;;;;4996132;28;20218;-82
2022/04/05 03:28:18;;;;;;;6.30;3.63;;;8.10;99.90;;;;;;5005011;28;20302;-84
2022/04/05 03:30:47;;;;;;;8.97;3.60;;;8.10;99.90;;;;;;4996817;28;20289;-84
2022/04/05 03:33:15;;;;;;;8.30;3.50;;;8.10;99.90;;;;;;4998990;28;20227;-82
2022/04/05 03:35:42;;;;;;;7.90;3.40;;;8.10;99.90;;;;;;5002879;28;20353;-82
2022/04/05 03:38:12;;;;;;;5.97;3.90;;;8.10;99.90;;;;;;4996364;28;20719;-83
2022/04/05 03:40:41;;;;;;;9.43;4.10;;;8.10;99.90;;;;;;5002399;28;20232;-82
2022/04/05 03:43:12;;;;;;;7.50;3.90;;;8.10;99.90;;;;;;5003287;28;20304;-83
2022/04/05 03:45:39;;;;;;;6.47;3.63;;;8.10;99.90;;;;;;5004669;28;20212;-83
2022/04/05 03:48:07;;;;;;;9.97;4.17;;;8.10;99.90;;;;;;5004108;28;20283;-83
2022/04/05 03:50:34;;;;;;;8.93;4.33;;;8.10;99.90;;;;;;5005298;28;20677;-84
2022/04/05 03:53:01;;;;;;;8.17;4.20;;;8.10;99.90;;;;;;4997480;28;20236;-83
2022/04/05 03:55:31;;;;;;;8.23;4.33;;;8.10;99.90;;;;;;5010318;28;20233;-84
2022/04/05 03:57:58;;;;;;;6.97;4.10;;;8.10;99.90;;;;;;5003695;28;20216;-84
2022/04/05 04:00:25;;;;;;;8.10;4.50;;;8.10;99.90;;;;;;5001764;28;20223;-82
2022/04/05 04:02:51;;;;;;;7.93;4.37;;;8.10;99.90;;;;;;4998775;28;20213;-83
2022/04/05 04:05:20;;;;;;;9.00;4.80;;;8.10;99.90;;;;;;4996614;28;20263;-84
2022/04/05 04:07:48;;;;;;;12.53;4.33;;;8.10;99.90;;;;;;5001661;28;20232;-83
2022/04/05 04:10:16;;;;;;;7.83;4.77;;;8.10;99.90;;;;;;4994601;28;20680;-83
2022/04/05 04:12:50;;;;;;;8.27;4.73;;;8.00;99.90;;;;;;4994633;28;20232;-83
2022/04/05 04:15:19;;;;;;;8.90;4.93;;;8.10;99.90;;;;;;4998665;28;20240;-83
2022/04/05 04:17:46;;;;;;;8.10;4.27;;;8.10;99.90;;;;;;4995962;28;20207;-83
2022/04/05 04:20:13;;;;;;;9.20;5.03;;;8.10;99.90;;;;;;4997059;28;20264;-83
2022/04/05 04:22:40;;;;;;;9.13;4.63;;;8.10;99.90;;;;;;4998328;28;20253;-83
2022/04/05 04:25:07;;;;;;;10.03;5.40;;;8.10;99.90;;;;;;4997781;28;20220;-84
2022/04/05 04:27:34;;;;;;;11.10;5.63;;;8.10;99.90;;;;;;4996179;28;20209;-83
2022/04/05 04:30:02;;;;;;;11.53;5.83;;;8.10;99.90;;;;;;5000314;28;21025;-82
2022/04/05 04:32:29;;;;;;;9.47;4.77;;;8.10;99.90;;;;;;4998430;28;20692;-82
2022/04/05 04:34:56;;;;;;;12.50;5.53;;;8.20;99.90;;;;;;4993657;28;20582;-82
2022/04/05 04:37:23;;;;;;;8.90;5.23;;;8.10;99.90;;;;;;5004104;28;20327;-82
2022/04/05 04:39:50;;;;;;;13.83;5.70;;;8.10;99.90;;;;;;4996586;28;20217;-82
2022/04/05 04:42:17;;;;;;;11.47;5.87;;;8.10;99.90;;;;;;4998848;28;20200;-83
2022/04/05 04:44:44;;;;;;;12.43;6.37;;;8.10;99.90;;;;;;5000485;28;20209;-84
2022/04/05 04:47:10;;;;;;;10.13;5.10;;;8.10;99.90;;;;;;4991497;28;20210;-83
2022/04/05 04:49:37;;;;;;;12.63;5.87;;;8.10;99.90;;;;;;5015309;28;20275;-82
2022/04/05 04:52:04;;;;;;;12.50;6.00;;;8.10;99.90;;;;;;4995281;28;20271;-82
2022/04/05 04:54:31;;;;;;;10.63;5.77;;;8.20;99.90;;;;;;5006360;28;20723;-84
2022/04/05 04:56:58;;;;;;;12.80;6.97;;;8.20;99.90;;;;;;4996844;28;20216;-83
2022/04/05 04:59:24;;;;;;;10.67;6.00;;;8.20;99.90;;;;;;4999440;28;20291;-83
2022/04/05 05:01:52;;;;;;;11.27;6.20;;;8.20;99.90;;;;;;5011476;28;20236;-84
2022/04/05 05:04:20;;;;;;;15.10;6.40;;;8.20;99.90;;;;;;4996289;28;20236;-82
2022/04/05 05:06:46;;;;;;;13.07;6.50;;;8.20;99.90;;;;;;4997808;28;20222;-82
2022/04/05 05:09:13;;;;;;;13.10;6.03;;;8.20;99.90;;;;;;5006269;28;20334;-82
2022/04/05 05:11:40;;;;;;;14.73;6.17;;;8.20;99.90;;;;;;5005647;28;20209;-81
2022/04/05 05:14:07;;;;;;;19.13;6.30;;;8.20;99.90;;;;;;4993811;28;20265;-83
2022/04/05 05:16:34;;;;;;;13.77;6.50;;;8.30;99.90;;;;;;4994458;28;20246;-81
2022/04/05 05:19:01;;;;;;;14.60;7.37;;;8.30;99.90;;;;;;4994811;28;20666;-81
2022/04/05 05:21:27;;;;;;;16.87;7.60;;;8.20;99.90;;;;;;5003117;28;20292;-80
2022/04/05 05:23:54;;;;;;;18.80;7.17;;;8.30;99.90;;;;;;5000906;28;20234;-81
2022/04/05 05:26:21;;;;;;;16.10;7.40;;;8.20;99.90;;;;;;5005677;28;20676;-81
2022/04/05 05:28:48;;;;;;;20.67;8.03;;;8.20;99.90;;;;;;4993219;28;20277;-81
2022/04/05 05:31:14;;;;;;;17.27;8.30;;;8.20;99.90;;;;;;4994389;28;20210;-82
2022/04/05 05:33:41;;;;;;;20.87;8.33;;;8.20;99.90;;;;;;4995381;28;20217;-82
2022/04/05 05:36:08;;;;;;;19.27;7.70;;;8.20;99.90;;;;;;5002334;28;20563;-81
2022/04/05 05:38:35;;;;;;;17.57;8.63;;;8.20;99.90;;;;;;5000138;28;20327;-81
2022/04/05 05:41:02;;;;;;;15.63;8.40;;;8.20;99.90;;;;;;4995037;28;20221;-81
2022/04/05 05:43:31;;;;;;;22.57;8.93;;;8.20;99.90;;;;;;5002840;28;20642;-82
2022/04/05 05:45:58;;;;;;;24.80;9.43;;;8.20;99.90;;;;;;4999461;28;20300;-82
2022/04/05 05:48:25;;;;;;;20.20;9.37;;;8.30;99.90;;;;;;5001582;28;20682;-81
2022/04/05 05:50:51;;;;;;;18.37;9.03;;;8.30;99.90;;;;;;5001592;28;20640;-81
2022/04/05 05:53:18;;;;;;;20.80;9.90;;;8.40;99.90;;;;;;5005149;28;20213;-80
2022/04/05 05:55:46;;;;;;;21.40;10.00;;;8.40;99.90;;;;;;5006114;28;20285;-81
2022/04/05 05:58:13;;;;;;;23.37;10.67;;;8.50;99.90;;;;;;4999358;28;20347;-82
2022/04/05 06:00:40;;;;;;;21.77;9.67;;;8.50;99.90;;;;;;5004308;28;20266;-81
2022/04/05 06:03:10;;;;;;;23.50;10.10;;;8.50;99.90;;;;;;4999251;28;20672;-80
2022/04/05 06:05:37;;;;;;;23.37;10.27;;;8.60;99.90;;;;;;5003183;28;20280;-80
2022/04/05 06:08:04;;;;;;;22.33;10.77;;;8.60;99.90;;;;;;5003718;28;20304;-80
2022/04/05 06:10:32;;;;;;;23.80;10.87;;;8.60;99.90;;;;;;4999587;28;20207;-80
2022/04/05 06:12:59;;;;;;;24.67;10.30;;;8.60;99.90;;;;;;4997402;28;20223;-81
2022/04/05 06:15:27;;;;;;;24.23;10.57;;;8.80;99.90;;;;;;5001095;28;20289;-81
2022/04/05 06:17:55;;;;;;;26.20;10.93;;;8.70;99.90;;;;;;4993618;28;20207;-81
2022/04/05 06:20:22;;;;;;;20.93;10.37;;;8.80;99.90;;;;;;5002710;28;20656;-81
2022/04/05 06:22:57;;;;;;;25.43;10.30;;;8.80;99.90;;;;;;4997734;28;20222;-79
2022/04/05 06:25:37;;;;;;;27.23;10.47;;;8.80;99.90;;;;;;5003752;28;20292;-79
2022/04/05 06:28:06;;;;;;;25.83;10.07;;;8.90;99.90;;;;;;4999533;28;20399;-79
2022/04/05 06:30:35;;;;;;;29.10;11.23;;;8.90;99.90;;;;;;4995239;28;20207;-81
2022/04/05 06:33:17;;;;;;;23.67;10.03;;;8.90;99.90;;;;;;4997182;28;20313;-80
2022/04/05 06:35:47;;;;;;;24.40;10.37;;;9.00;99.90;;;;;;4995572;28;20210;-81
2022/04/05 06:38:15;;;;;;;27.27;11.03;;;8.90;99.90;;;;;;4999918;28;20560;-81
2022/04/05 06:40:43;;;;;;;26.43;10.37;;;9.00;99.90;;;;;;4994735;28;20594;-81
2022/04/05 06:43:11;;;;;;;27.97;12.40;;;9.00;99.90;;;;;;5003410;28;20820;-82
2022/04/05 06:45:38;;;;;;;27.90;11.43;;;9.20;99.90;;;;;;5003529;28;20672;-80
2022/04/05 06:48:06;;;;;;;29.13;11.50;;;9.10;99.90;;;;;;5000773;28;20206;-82
2022/04/05 06:50:34;;;;;;;25.10;11.77;;;9.10;99.90;;;;;;5002725;28;20239;-81
2022/04/05 06:53:01;;;;;;;22.37;11.10;;;9.10;99.90;;;;;;4998482;28;20704;-81
2022/04/05 06:55:29;;;;;;;23.73;10.63;;;9.20;99.90;;;;;;4996997;28;20270;-81
2022/04/05 06:57:56;;;;;;;21.10;10.00;;;9.20;99.90;;;;;;5007478;28;20238;-81
2022/04/05 07:00:24;;;;;;;23.53;11.07;;;9.20;99.90;;;;;;4994018;28;20211;-82
2022/04/05 07:02:53;;;;;;;24.30;11.00;;;9.20;99.90;;;;;;4994082;28;20296;-81
2022/04/05 07:05:21;;;;;;;22.57;10.17;;;9.30;99.90;;;;;;5006226;28;20219;-81
2022/04/05 07:07:48;;;;;;;22.93;9.97;;;9.30;99.90;;;;;;5006044;28;20601;-82
2022/04/05 07:10:17;;;;;;;21.93;10.73;;;9.30;99.90;;;;;;4996917;28;20237;-84
2022/04/05 07:12:45;;;;;;;20.70;10.00;;;9.40;99.90;;;;;;4995040;28;20627;-83
2022/04/05 07:15:12;;;;;;;21.47;10.57;;;9.40;99.90;;;;;;4997812;28;20243;-81
2022/04/05 07:17:40;;;;;;;22.40;10.10;;;9.40;99.90;;;;;;4996803;28;20259;-82
2022/04/05 07:20:27;;;;;;;24.13;11.20;;;9.50;99.90;;;;;;5001253;28;20528;-82
2022/04/05 07:22:55;;;;;;;17.73;9.73;;;9.50;99.90;;;;;;4993872;28;20346;-84
2022/04/05 07:25:22;;;;;;;21.67;10.70;;;9.50;99.90;;;;;;4999472;28;20203;-83
2022/04/05 07:27:51;;;;;;;17.63;10.10;;;9.60;99.90;;;;;;4996205;28;20251;-82
2022/04/05 07:30:20;;;;;;;16.93;10.07;;;9.60;99.90;;;;;;4999056;28;20695;-83
2022/04/05 07:32:47;;;;;;;18.33;9.93;;;9.60;99.90;;;;;;4997933;28;20236;-82
2022/04/05 07:35:15;;;;;;;18.17;9.77;;;9.80;99.90;;;;;;4996034;28;20682;-81
2022/04/05 07:37:42;;;;;;;18.37;10.13;;;9.70;99.90;;;;;;4996990;28;20229;-83
2022/04/05 07:40:10;;;;;;;17.70;9.97;;;9.70;99.90;;;;;;5006849;28;20239;-83
2022/04/05 07:42:39;;;;;;;19.37;9.97;;;9.70;99.90;;;;;;5002936;28;20289;-83
2022/04/05 07:45:08;;;;;;;16.70;10.17;;;9.70;99.90;;;;;;4996962;28;20221;-82
2022/04/05 07:47:35;;;;;;;17.90;10.13;;;9.70;99.90;;;;;;4998820;28;20333;-81
2022/04/05 07:50:03;;;;;;;16.57;9.90;;;9.70;99.90;;;;;;5004197;28;20293;-82
2022/04/05 07:52:30;;;;;;;24.00;11.30;;;9.60;99.90;;;;;;4998598;28;20227;-83
2022/04/05 07:54:57;;;;;;;22.67;11.43;;;9.60;99.90;;;;;;5009056;28;20211;-82
2022/04/05 07:57:24;;;;;;;28.90;13.70;;;9.60;99.90;;;;;;5004842;28;20228;-84
2022/04/05 07:59:51;;;;;;;33.47;14.10;;;9.60;99.90;;;;;;4997919;28;20311;-82
2022/04/05 08:02:18;;;;;;;31.77;13.83;;;9.60;99.90;;;;;;5014398;28;20301;-83
2022/04/05 08:04:55;;;;;;;35.63;14.87;;;9.60;99.90;;;;;;5000914;28;20578;-82
2022/04/05 08:07:22;;;;;;;35.00;15.37;;;9.70;99.90;;;;;;4998612;28;20225;-83
2022/04/05 08:09:49;;;;;;;36.80;16.27;;;9.80;99.90;;;;;;4997447;28;20235;-81
2022/04/05 08:12:16;;;;;;;45.03;19.03;;;9.90;99.90;;;;;;5001055;28;20206;-83
2022/04/05 08:14:44;;;;;;;37.40;18.03;;;10.00;99.90;;;;;;4993468;28;20281;-82
2022/04/05 08:17:10;;;;;;;38.77;16.17;;;10.00;99.90;;;;;;5001078;28;20299;-82
2022/04/05 08:19:39;;;;;;;39.90;17.37;;;10.00;99.90;;;;;;4995638;28;20828;-83
2022/04/05 08:22:08;;;;;;;32.97;15.17;;;10.10;99.90;;;;;;4994934;28;20219;-84
2022/04/05 08:24:36;;;;;;;32.27;16.20;;;10.20;99.90;;;;;;5001387;28;20200;-82
2022/04/05 08:27:03;;;;;;;35.60;16.63;;;10.30;99.90;;;;;;4995400;28;20213;-81
2022/04/05 08:29:29;;;;;;;28.20;14.53;;;10.40;99.90;;;;;;5005496;28;20264;-83
2022/04/05 08:31:56;;;;;;;28.90;14.27;;;10.40;99.90;;;;;;5007338;28;20211;-82
2022/04/05 08:34:23;;;;;;;31.77;14.77;;;10.50;99.90;;;;;;4996587;28;20217;-83
2022/04/05 08:36:50;;;;;;;24.67;14.43;;;10.60;99.90;;;;;;4992467;28;20326;-82
2022/04/05 08:39:20;;;;;;;28.97;15.30;;;10.60;99.90;;;;;;4999911;28;20944;-82
2022/04/05 08:41:48;;;;;;;32.37;15.53;;;10.70;99.90;;;;;;5003699;28;20204;-82
2022/04/05 08:44:18;;;;;;;26.37;14.27;;;10.80;99.90;;;;;;5003003;28;20220;-80
2022/04/05 08:46:46;;;;;;;27.60;14.33;;;10.70;99.90;;;;;;4996516;28;20207;-82
2022/04/05 08:49:13;;;;;;;26.10;14.07;;;10.80;99.90;;;;;;4990991;28;20694;-82
2022/04/05 08:51:40;;;;;;;21.90;13.67;;;10.90;99.90;;;;;;4997802;28;20222;-81
2022/04/05 08:54:07;;;;;;;25.83;13.00;;;10.90;99.90;;;;;;4995105;28;20643;-81
2022/04/05 08:56:34;;;;;;;22.40;12.67;;;10.90;99.90;;;;;;5002122;28;20206;-83
2022/04/05 08:59:02;;;;;;;23.80;12.70;;;10.90;99.90;;;;;;4996696;28;20710;-81
2022/04/05 09:01:29;;;;;;;19.37;12.23;;;10.90;99.90;;;;;;4996433;28;20222;-81
2022/04/05 09:03:57;;;;;;;21.10;12.37;;;10.90;99.90;;;;;;4997978;28;20293;-81
2022/04/05 09:06:31;;;;;;;23.73;13.20;;;10.90;99.90;;;;;;5000574;28;20202;-80
2022/04/05 09:09:12;;;;;;;24.67;13.70;;;10.90;99.90;;;;;;4995433;28;20709;-83
2022/04/05 09:11:50;;;;;;;20.80;12.20;;;10.90;99.90;;;;;;4998720;28;20215;-83
2022/04/05 09:14:50;;;;;;;19.50;12.10;;;11.00;99.90;;;;;;5000432;28;20238;-84
2022/04/05 09:17:17;;;;;;;24.70;14.53;;;11.10;99.90;;;;;;4997632;28;20206;-83
2022/04/05 09:19:49;;;;;;;25.07;12.83;;;11.10;99.90;;;;;;4992901;28;20207;-81
2022/04/05 09:22:32;;;;;;;20.03;13.33;;;11.20;99.90;;;;;;5004491;28;20227;-81
2022/04/05 09:25:23;;;;;;;19.27;12.47;;;11.40;99.90;;;;;;4996090;28;20215;-82
2022/04/05 09:27:55;;;;;;;23.87;12.87;;;11.50;99.90;;;;;;4994383;28;20730;-81
2022/04/05 09:30:25;;;;;;;22.73;11.90;;;11.60;99.90;;;;;;5005636;28;20621;-82
2022/04/05 09:32:52;;;;;;;21.47;12.87;;;11.60;99.90;;;;;;4992408;28;20216;-81
2022/04/05 09:35:21;;;;;;;18.67;11.90;;;11.70;99.90;;;;;;4992791;28;20246;-80
2022/04/05 09:37:48;;;;;;;22.83;12.87;;;11.70;99.90;;;;;;4999418;28;20223;-82
2022/04/05 09:40:32;;;;;;;19.90;12.50;;;11.80;99.90;;;;;;4994249;28;20288;-82
2022/04/05 09:43:21;;;;;;;19.30;11.77;;;11.80;99.90;;;;;;4998062;28;20613;-81
2022/04/05 09:46:03;;;;;;;18.73;11.90;;;11.70;99.90;;;;;;4995961;28;20834;-81
2022/04/05 09:48:35;;;;;;;18.37;12.57;;;11.70;99.90;;;;;;4990962;28;20215;-83
2022/04/05 09:51:09;;;;;;;19.47;11.73;;;11.60;99.90;;;;;;4996188;28;20230;-81
2022/04/05 09:53:39;;;;;;;21.20;13.57;;;11.60;99.90;;;;;;4995087;28;20757;-81
2022/04/05 09:56:19;;;;;;;22.53;13.03;;;11.60;99.90;;;;;;5005382;28;20788;-82
2022/04/05 09:58:54;;;;;;;24.10;12.37;;;11.50;99.90;;;;;;4988383;28;20222;-81
2022/04/05 10:01:24;;;;;;;20.23;12.37;;;11.60;99.90;;;;;;4995879;28;20240;-80
2022/04/05 10:04:04;;;;;;;22.57;11.97;;;11.60;99.90;;;;;;4991686;28;20209;-81
2022/04/05 10:06:33;;;;;;;15.77;10.97;;;11.60;99.90;;;;;;5001507;28;20257;-81
2022/04/05 10:09:03;;;;;;;17.43;10.47;;;11.60;99.90;;;;;;4996497;28;20273;-81
2022/04/05 10:11:32;;;;;;;17.67;9.50;;;11.50;99.90;;;;;;4996130;28;20540;-81
2022/04/05 10:13:59;;;;;;;17.37;9.57;;;11.60;99.90;;;;;;4992779;28;20211;-81
2022/04/05 10:16:28;;;;;;;14.33;9.47;;;11.60;99.90;;;;;;4994225;28;20691;-81
2022/04/05 10:19:11;;;;;;;15.27;9.20;;;11.60;99.90;;;;;;4993234;28;20207;-82
2022/04/05 10:21:40;;;;;;;15.97;9.40;;;11.60;99.90;;;;;;4997708;28;20635;-81
2022/04/05 10:24:09;;;;;;;16.27;9.53;;;11.70;99.90;;;;;;4999718;28;20237;-81
2022/04/05 10:26:38;;;;;;;16.23;10.23;;;11.80;99.90;;;;;;4996020;28;20258;-81
2022/04/05 10:29:11;;;;;;;12.53;9.30;;;11.80;99.90;;;;;;4998911;28;20855;-81
2022/04/05 10:32:04;;;;;;;16.10;9.67;;;11.80;99.90;;;;;;5000175;28;20525;-82
2022/04/05 10:34:44;;;;;;;13.90;8.53;;;11.90;99.90;;;;;;4994432;28;20330;-81
2022/04/05 10:37:21;;;;;;;13.70;8.00;;;11.90;99.90;;;;;;4998866;28;20257;-81
2022/04/05 10:39:57;;;;;;;14.47;9.77;;;11.90;99.90;;;;;;5000110;28;20317;-83
2022/04/05 10:42:40;;;;;;;13.50;9.60;;;11.90;99.90;;;;;;5003017;28;20268;-81
2022/04/05 10:45:26;;;;;;;16.03;10.30;;;11.90;99.90;;;;;;5002787;28;20226;-82
2022/04/05 10:48:11;;;;;;;15.30;10.37;;;11.90;99.90;;;;;;5002598;28;20301;-80
2022/04/05 10:51:07;;;;;;;18.00;11.53;;;11.90;99.90;;;;;;5011437;28;20788;-84
2022/04/05 10:54:17;;;;;;;16.93;10.50;;;12.10;99.90;;;;;;4999228;28;20217;-84
2022/04/05 10:56:41;;;;;;;13.00;9.20;;;12.30;99.90;;;;;;5001894;28;20239;-82
2022/04/05 10:59:17;;;;;;;13.93;8.37;;;12.40;99.90;;;;;;4999326;28;20728;-80
2022/04/05 11:01:47;;;;;;;13.53;8.50;;;12.40;99.90;;;;;;4996455;28;20222;-83
2022/04/05 11:04:19;;;;;;;11.93;7.00;;;12.50;99.90;;;;;;5005637;28;20738;-84
2022/04/05 11:07:10;;;;;;;10.83;7.00;;;12.60;99.90;;;;;;4998651;28;20238;-83
2022/04/05 11:09:48;;;;;;;11.57;7.50;;;12.60;99.90;;;;;;5008103;28;20238;-83
2022/04/05 11:12:30;;;;;;;12.60;7.57;;;12.70;99.90;;;;;;4994423;28;20235;-81
2022/04/05 11:15:09;;;;;;;10.87;7.63;;;12.60;99.90;;;;;;5006846;28;20777;-83
2022/04/05 11:17:48;;;;;;;9.40;7.27;;;12.70;99.90;;;;;;4999191;28;20207;-83
2022/04/05 11:20:32;;;;;;;11.77;8.17;;;12.70;99.90;;;;;;5007184;28;20207;-84
2022/04/05 11:23:00;;;;;;;10.67;8.07;;;12.60;99.90;;;;;;5010741;28;20302;-81
2022/04/05 11:25:29;;;;;;;13.33;8.17;;;13.40;99.90;;;;;;4999511;28;20211;-81
2022/04/05 11:28:18;;;;;;;13.00;7.57;;;13.00;99.90;;;;;;4997005;28;20321;-82
2022/04/05 11:30:54;;;;;;;10.67;7.63;;;13.00;99.90;;;;;;5007683;28;20280;-80
2022/04/05 11:33:22;;;;;;;9.60;6.80;;;12.90;99.90;;;;;;4996255;28;20222;-81
2022/04/05 11:35:57;;;;;;;13.27;8.73;;;12.90;99.90;;;;;;4998302;28;20210;-81
2022/04/05 11:38:26;;;;;;;11.77;7.80;;;12.80;99.90;;;;;;4996489;28;20249;-80
2022/04/05 11:41:00;;;;;;;13.70;8.43;;;12.70;99.90;;;;;;5002519;28;20321;-81
2022/04/05 11:43:33;;;;;;;14.63;8.60;;;12.70;99.90;;;;;;5001697;28;20215;-80
2022/04/05 11:46:09;;;;;;;13.10;8.47;;;12.70;99.90;;;;;;5004351;28;20277;-79
2022/04/05 11:48:45;;;;;;;11.10;8.33;;;12.70;99.90;;;;;;4997952;28;20207;-81
2022/04/05 11:51:18;;;;;;;12.90;7.77;;;12.80;99.90;;;;;;5008111;28;20913;-81
2022/04/05 11:53:46;;;;;;;14.27;7.43;;;12.70;99.90;;;;;;5003684;28;20214;-82
2022/04/05 11:56:20;;;;;;;13.17;7.57;;;12.60;99.90;;;;;;5006889;28;20247;-81
2022/04/05 11:58:50;;;;;;;9.57;7.30;;;12.70;99.90;;;;;;5007368;28;20229;-81
2022/04/05 12:01:23;;;;;;;10.03;6.23;;;12.70;99.90;;;;;;5001921;28;20207;-82
2022/04/05 12:03:57;;;;;;;8.33;7.10;;;12.90;99.90;;;;;;5006638;28;20218;-81
2022/04/05 12:06:44;;;;;;;11.90;6.70;;;12.90;99.90;;;;;;4996674;28;20270;-82
2022/04/05 12:09:13;;;;;;;9.63;5.40;;;13.00;99.90;;;;;;5009353;28;20209;-82
2022/04/05 12:11:46;;;;;;;8.97;5.93;;;13.00;99.90;;;;;;5006542;28;20348;-84
2022/04/05 12:14:19;;;;;;;12.23;6.03;;;12.90;99.90;;;;;;5005997;28;20242;-81
2022/04/05 12:16:57;;;;;;;8.33;5.00;;;12.80;99.90;;;;;;5002890;28;20673;-81
2022/04/05 12:19:39;;;;;;;9.87;5.43;;;12.80;99.90;;;;;;5010241;28;20202;-80
2022/04/05 12:22:08;;;;;;;10.73;5.50;;;12.90;99.90;;;;;;5005543;28;20636;-79
2022/04/05 12:24:50;;;;;;;9.83;6.10;;;12.70;99.90;;;;;;5005632;28;20224;-82
2022/04/05 12:27:23;;;;;;;9.47;6.10;;;12.60;99.90;;;;;;5003752;28;20206;-81
2022/04/05 12:29:57;;;;;;;8.20;5.33;;;12.60;99.90;;;;;;4999730;28;20214;-82
2022/04/05 12:32:36;;;;;;;9.03;6.20;;;12.50;99.90;;;;;;5003709;28;20210;-82
2022/04/05 12:35:04;;;;;;;13.97;5.80;;;12.60;99.90;;;;;;5004576;28;20553;-83
2022/04/05 12:37:31;;;;;;;8.20;5.70;;;12.60;99.90;;;;;;5005051;28;20716;-82
2022/04/05 12:40:01;;;;;;;11.63;5.97;;;12.70;99.90;;;;;;5004413;28;20260;-83
2022/04/05 12:42:41;;;;;;;12.23;6.17;;;12.80;99.90;;;;;;5003131;28;20362;-84
2022/04/05 12:45:13;;;;;;;12.60;5.93;;;12.90;99.90;;;;;;5005576;28;20257;-82
2022/04/05 12:47:46;;;;;;;9.27;5.57;;;12.80;99.90;;;;;;5014590;28;20202;-82
2022/04/05 12:50:17;;;;;;;12.27;6.00;;;12.80;99.90;;;;;;5003004;28;20718;-82
2022/04/05 12:52:45;;;;;;;9.90;5.73;;;12.70;99.90;;;;;;5008826;28;20681;-84
2022/04/05 12:55:18;;;;;;;11.50;5.67;;;12.80;99.90;;;;;;5004265;28;20217;-83
2022/04/05 12:57:51;;;;;;;11.07;5.43;;;12.80;99.90;;;;;;4994498;28;20346;-82